Songkhla, Thailand
Current Conditions -  °F | °C
As of 8:30 AM on Tuesday 25 Nov 2014 (Local Time) from VTSS Reporting Station
Broken Clouds Broken Clouds  
Wind Chill: 81°   Ceiling: 30000
Heat Index: 88°   Visibility: 4mi
Dew Point: 79°   Wind: 2mph
Humidity: 94%   Direction: 270°W
Pressure: 29.83"   Gusts: NA
Location:  7.21°N, 100.56°E
Report Text: VTSS 250130Z 27002KT 7000 FEW020 SCT120 BKN300 27/26 Q1010 A2984 NOSIG
Loading
Personal Weather Stations






























Interactive Weather Map New forecast layout! Learn more

10-Day Weather Forecast

Advertisements
Track Severe Weather on mobile